createdAt,value
2022-07-29T00:00:00.437Z,18.11
2022-07-29T00:02:30.798Z,18.02
2022-07-29T00:04:57.494Z,18.01
2022-07-29T00:07:24.141Z,17.98
2022-07-29T00:09:52.502Z,18.01
2022-07-29T00:12:25.121Z,17.99
2022-07-29T00:14:54.434Z,17.95
2022-07-29T00:17:21.185Z,17.94
2022-07-29T00:19:47.915Z,17.97
2022-07-29T00:22:15.104Z,17.99
2022-07-29T00:24:42.048Z,17.90
2022-07-29T00:27:08.810Z,17.83
2022-07-29T00:29:35.668Z,17.84
2022-07-29T00:32:03.415Z,17.79
2022-07-29T00:34:49.064Z,17.73
2022-07-29T00:37:15.982Z,17.74
2022-07-29T00:39:42.694Z,17.73
2022-07-29T00:42:10.216Z,17.75
2022-07-29T00:44:42.718Z,17.68
2022-07-29T00:47:10.930Z,17.66
2022-07-29T00:49:39.623Z,17.60
2022-07-29T00:52:07.643Z,17.58
2022-07-29T00:54:35.744Z,17.59
2022-07-29T00:57:09.173Z,17.38
2022-07-29T00:59:36.037Z,17.35
2022-07-29T01:02:05.738Z,17.33
2022-07-29T01:04:33.265Z,17.36
2022-07-29T01:07:02.621Z,17.35
2022-07-29T01:09:42.114Z,17.47
2022-07-29T01:12:22.483Z,17.33
2022-07-29T01:14:50.585Z,17.42
2022-07-29T01:17:35.651Z,17.40
2022-07-29T01:20:31.576Z,17.47
2022-07-29T01:23:08.053Z,17.39
2022-07-29T01:25:56.009Z,17.39
2022-07-29T01:29:00.578Z,17.43
2022-07-29T01:31:59.606Z,17.48
2022-07-29T01:34:49.894Z,17.50
2022-07-29T01:37:25.264Z,17.51
2022-07-29T01:39:55.552Z,17.50
2022-07-29T01:42:33.308Z,17.47
2022-07-29T01:45:20.667Z,17.48
2022-07-29T01:48:15.316Z,17.50
2022-07-29T01:51:22.507Z,17.47
2022-07-29T01:54:16.737Z,17.42
2022-07-29T01:56:46.387Z,17.43
2022-07-29T01:59:13.520Z,17.39
2022-07-29T02:01:42.391Z,17.37
2022-07-29T02:04:12.161Z,17.31
2022-07-29T02:07:01.784Z,17.27
2022-07-29T02:09:30.537Z,17.28
2022-07-29T02:11:58.598Z,17.27
2022-07-29T02:14:28.032Z,17.28
2022-07-29T02:16:59.915Z,17.26
2022-07-29T02:19:28.825Z,17.27
2022-07-29T02:21:59.044Z,17.23
2022-07-29T02:24:27.481Z,17.25
2022-07-29T02:26:57.183Z,17.24
2022-07-29T02:29:27.446Z,17.26
2022-07-29T02:31:56.289Z,17.20
2022-07-29T02:34:24.517Z,17.27
2022-07-29T02:36:52.769Z,17.19
2022-07-29T02:39:20.735Z,17.19
2022-07-29T02:41:56.402Z,17.20
2022-07-29T02:44:27.329Z,17.12
2022-07-29T02:47:23.609Z,17.15
2022-07-29T02:49:53.668Z,17.13
2022-07-29T02:52:52.963Z,17.06
2022-07-29T02:55:38.488Z,16.99
2022-07-29T02:58:23.762Z,16.95
2022-07-29T03:00:52.897Z,16.87
2022-07-29T03:03:21.575Z,16.81
2022-07-29T03:05:48.423Z,16.78
2022-07-29T03:08:16.322Z,16.72
2022-07-29T03:10:46.635Z,16.68
2022-07-29T03:13:14.325Z,16.60
2022-07-29T03:15:44.694Z,16.51
2022-07-29T03:18:12.005Z,16.41
2022-07-29T03:20:40.053Z,16.40
2022-07-29T03:23:06.806Z,16.30
2022-07-29T03:25:33.612Z,16.30
2022-07-29T03:28:00.209Z,16.29
2022-07-29T03:30:26.971Z,16.21
2022-07-29T03:32:54.473Z,16.16
2022-07-29T03:35:23.858Z,16.06
2022-07-29T03:37:50.689Z,16.05
2022-07-29T03:40:24.098Z,15.99
2022-07-29T03:42:54.324Z,15.92
2022-07-29T03:45:22.802Z,15.93
2022-07-29T03:48:00.979Z,15.94
2022-07-29T03:50:29.973Z,15.89
2022-07-29T03:52:56.758Z,15.96
2022-07-29T03:55:23.603Z,15.93
2022-07-29T03:57:51.475Z,15.92
2022-07-29T04:00:18.334Z,15.84
2022-07-29T04:02:49.740Z,15.78
2022-07-29T04:05:17.197Z,15.76
2022-07-29T04:07:51.857Z,15.72
2022-07-29T04:10:30.083Z,15.65
2022-07-29T04:12:59.560Z,15.59
2022-07-29T04:15:26.384Z,15.51
2022-07-29T04:17:58.874Z,15.47
2022-07-29T04:20:27.977Z,15.53
2022-07-29T04:22:54.711Z,15.61
2022-07-29T04:25:21.726Z,15.70
2022-07-29T04:28:03.466Z,15.80
2022-07-29T04:30:32.319Z,15.79
2022-07-29T04:32:59.571Z,15.82
2022-07-29T04:35:26.295Z,15.86
2022-07-29T04:37:52.863Z,15.89
2022-07-29T04:40:20.090Z,15.97
2022-07-29T04:42:47.785Z,16.05
2022-07-29T04:45:15.395Z,15.97
2022-07-29T04:47:43.119Z,15.78
2022-07-29T04:50:10.865Z,15.29
2022-07-29T04:52:37.738Z,14.72
2022-07-29T04:55:06.289Z,14.46
2022-07-29T04:57:34.437Z,14.28
2022-07-29T05:00:01.076Z,14.16
2022-07-29T05:02:27.737Z,14.15
2022-07-29T05:04:54.468Z,14.19
2022-07-29T05:07:21.290Z,14.27
2022-07-29T05:09:48.190Z,14.35
2022-07-29T05:12:15.002Z,14.52
2022-07-29T05:14:41.661Z,14.68
2022-07-29T05:17:08.359Z,14.83
2022-07-29T05:19:39.557Z,14.99
2022-07-29T05:22:07.070Z,15.13
2022-07-29T05:24:33.761Z,15.19
2022-07-29T05:27:00.798Z,15.29
2022-07-29T05:29:43.083Z,15.32
2022-07-29T05:32:13.017Z,15.42
2022-07-29T05:34:50.344Z,15.63
2022-07-29T05:37:19.978Z,15.83
2022-07-29T05:39:48.981Z,16.18
2022-07-29T05:42:17.555Z,16.80
2022-07-29T05:44:44.352Z,17.40
2022-07-29T05:47:11.005Z,18.03
2022-07-29T05:49:37.645Z,18.55
2022-07-29T05:52:04.608Z,19.35
2022-07-29T05:54:31.638Z,19.92
2022-07-29T05:56:58.290Z,19.96
2022-07-29T05:59:29.865Z,20.18
2022-07-29T06:01:58.424Z,20.17
2022-07-29T06:04:25.699Z,20.11
2022-07-29T06:06:52.613Z,20.53
2022-07-29T06:09:21.820Z,21.42
2022-07-29T06:11:48.482Z,21.72
2022-07-29T06:14:16.151Z,21.67
2022-07-29T06:16:44.073Z,21.99
2022-07-29T06:19:10.819Z,22.20
2022-07-29T06:21:38.591Z,22.08
2022-07-29T06:24:08.915Z,22.41
2022-07-29T06:26:39.611Z,22.75
2022-07-29T06:29:07.485Z,21.82
2022-07-29T06:31:34.366Z,20.94
2022-07-29T06:34:01.360Z,22.17
2022-07-29T06:36:28.149Z,22.04
2022-07-29T06:38:54.825Z,22.70
2022-07-29T06:41:24.084Z,23.02
2022-07-29T06:43:55.269Z,23.55
2022-07-29T06:46:23.964Z,23.23
2022-07-29T06:48:51.934Z,23.22
2022-07-29T06:51:22.967Z,22.13
2022-07-29T06:54:00.119Z,22.44
2022-07-29T06:56:38.605Z,22.65
2022-07-29T06:59:08.099Z,21.93
2022-07-29T07:01:35.141Z,22.44
2022-07-29T07:04:01.878Z,22.74
2022-07-29T07:06:28.818Z,22.78
2022-07-29T07:08:55.507Z,22.91
2022-07-29T07:11:22.529Z,23.09
2022-07-29T07:13:49.591Z,23.59
2022-07-29T07:16:17.544Z,22.30
2022-07-29T07:18:46.448Z,22.76
2022-07-29T07:21:18.742Z,23.06
2022-07-29T07:23:46.821Z,23.17
2022-07-29T07:26:13.675Z,23.58
2022-07-29T07:28:40.781Z,23.23
2022-07-29T07:31:07.429Z,22.91
2022-07-29T07:33:34.172Z,22.37
2022-07-29T07:36:00.966Z,21.67
2022-07-29T07:38:27.987Z,21.85
2022-07-29T07:40:55.813Z,21.46
2022-07-29T07:43:23.014Z,21.15
2022-07-29T07:45:50.343Z,20.30
2022-07-29T07:48:17.109Z,20.56
2022-07-29T07:50:46.217Z,21.03
2022-07-29T07:53:13.097Z,20.77
2022-07-29T07:58:30.094Z,21.19
2022-07-29T08:00:56.775Z,21.53
2022-07-29T08:03:23.706Z,21.46
2022-07-29T08:05:52.925Z,21.18
2022-07-29T08:08:19.794Z,20.87
2022-07-29T08:11:02.204Z,20.60
2022-07-29T08:13:33.044Z,20.83
2022-07-29T08:16:02.395Z,20.98
2022-07-29T08:18:31.456Z,21.25
2022-07-29T08:20:58.942Z,21.13
2022-07-29T08:25:54.954Z,21.45
2022-07-29T08:28:22.067Z,21.40
2022-07-29T08:30:52.927Z,21.12
2022-07-29T08:33:19.553Z,21.38
2022-07-29T08:35:46.605Z,21.46
2022-07-29T08:38:13.304Z,21.43
2022-07-29T08:40:40.640Z,21.60
2022-07-29T08:43:09.383Z,21.61
2022-07-29T08:45:47.951Z,22.07
2022-07-29T08:48:23.487Z,22.13
2022-07-29T08:50:55.953Z,22.22
2022-07-29T08:53:25.788Z,22.22
2022-07-29T08:55:54.258Z,22.17
2022-07-29T08:58:23.301Z,22.09
2022-07-29T09:00:54.110Z,22.38
2022-07-29T09:03:25.514Z,22.51
2022-07-29T09:05:53.045Z,22.68
2022-07-29T09:08:21.184Z,22.85
2022-07-29T09:10:48.306Z,22.55
2022-07-29T09:13:15.554Z,22.66
2022-07-29T09:15:42.278Z,22.60
2022-07-29T09:18:20.630Z,22.38
2022-07-29T09:21:15.291Z,22.31
2022-07-29T09:23:42.771Z,22.48
2022-07-29T09:26:09.323Z,22.79
2022-07-29T09:28:43.230Z,22.87
2022-07-29T09:31:09.908Z,22.59
2022-07-29T09:33:37.427Z,22.60
2022-07-29T09:36:10.641Z,22.52
2022-07-29T09:38:38.420Z,22.52
2022-07-29T09:41:07.227Z,22.80
2022-07-29T09:43:35.839Z,22.78
2022-07-29T09:46:22.139Z,22.80
2022-07-29T09:49:17.887Z,22.81
2022-07-29T09:51:44.888Z,23.08
2022-07-29T09:54:46.029Z,22.83
2022-07-29T09:57:33.963Z,23.17
2022-07-29T10:00:12.293Z,23.02
2022-07-29T10:02:41.027Z,22.69
2022-07-29T10:05:21.785Z,22.89
2022-07-29T10:07:54.086Z,23.60
2022-07-29T10:10:29.720Z,23.87
2022-07-29T10:13:01.784Z,24.27
2022-07-29T10:15:44.243Z,23.89
2022-07-29T10:18:13.812Z,24.15
2022-07-29T10:20:44.092Z,24.22
2022-07-29T10:23:10.934Z,24.43
2022-07-29T10:25:37.899Z,24.64
2022-07-29T10:28:07.078Z,24.81
2022-07-29T10:30:33.822Z,24.56
2022-07-29T10:33:08.331Z,24.64
2022-07-29T10:35:47.372Z,24.60
2022-07-29T10:38:22.802Z,24.70
2022-07-29T10:41:26.639Z,24.88
2022-07-29T10:43:58.037Z,24.87
2022-07-29T10:46:26.053Z,24.67
2022-07-29T10:49:15.185Z,24.67
2022-07-29T10:51:51.485Z,24.89
2022-07-29T10:54:19.583Z,25.01
2022-07-29T10:56:47.808Z,24.89
2022-07-29T10:59:21.499Z,24.91
2022-07-29T11:01:53.548Z,24.85
2022-07-29T11:04:47.078Z,24.92
2022-07-29T11:07:17.659Z,25.11
2022-07-29T11:10:17.728Z,24.88
2022-07-29T11:12:50.645Z,24.64
2022-07-29T11:15:20.123Z,24.45
2022-07-29T11:17:59.635Z,24.47
2022-07-29T11:20:47.773Z,24.49
2022-07-29T11:23:33.505Z,24.66
2022-07-29T11:26:26.916Z,24.94
2022-07-29T11:28:56.954Z,25.32
2022-07-29T11:31:33.971Z,25.77
2022-07-29T11:34:28.106Z,25.23
2022-07-29T11:37:17.728Z,25.13
2022-07-29T11:40:02.328Z,24.35
2022-07-29T11:42:32.913Z,24.16
2022-07-29T11:45:41.189Z,24.47
2022-07-29T11:48:29.937Z,24.31
2022-07-29T11:50:50.817Z,24.15
2022-07-29T11:53:18.026Z,24.53
2022-07-29T11:58:34.092Z,24.46
2022-07-29T12:01:05.508Z,24.78
2022-07-29T12:03:35.362Z,25.00
2022-07-29T12:06:04.518Z,24.88
2022-07-29T12:07:02.363Z,24.50
2022-07-29T12:08:41.915Z,25.61
2022-07-29T12:11:17.022Z,26.10
2022-07-29T12:13:45.385Z,25.84
2022-07-29T12:16:14.774Z,26.00
2022-07-29T12:18:43.730Z,26.11
2022-07-29T12:21:12.556Z,26.36
2022-07-29T12:23:39.900Z,26.45
2022-07-29T12:26:10.696Z,26.19
2022-07-29T12:28:50.580Z,25.82
2022-07-29T12:31:43.873Z,25.98
2022-07-29T12:34:04.638Z,25.98
2022-07-29T12:36:31.438Z,26.04
2022-07-29T12:38:58.763Z,25.49
2022-07-29T12:41:25.533Z,24.92
2022-07-29T12:43:55.734Z,25.43
2022-07-29T12:46:22.686Z,25.51
2022-07-29T12:48:55.851Z,25.89
2022-07-29T12:51:43.441Z,26.17
2022-07-29T12:54:16.473Z,26.12
2022-07-29T12:56:46.684Z,26.04
2022-07-29T12:59:22.314Z,25.74
2022-07-29T13:01:52.711Z,25.68
2022-07-29T13:04:30.256Z,25.45
2022-07-29T13:07:08.456Z,25.16
2022-07-29T13:09:43.775Z,25.36
2022-07-29T13:12:12.341Z,25.54
2022-07-29T13:14:48.241Z,26.07
2022-07-29T13:17:33.665Z,26.38
2022-07-29T13:20:13.356Z,26.50
2022-07-29T13:22:41.219Z,26.54
2022-07-29T13:25:10.362Z,25.68
2022-07-29T13:27:40.531Z,25.78
2022-07-29T13:30:09.833Z,24.94
2022-07-29T13:32:41.914Z,25.10
2022-07-29T13:35:09.517Z,25.54
2022-07-29T13:37:39.621Z,25.69
2022-07-29T13:40:10.313Z,26.32
2022-07-29T13:42:37.267Z,26.61
2022-07-29T13:45:05.727Z,26.30
2022-07-29T13:47:34.358Z,25.70
2022-07-29T13:50:02.079Z,25.84
2022-07-29T13:52:28.957Z,26.18
2022-07-29T13:54:55.611Z,25.69
2022-07-29T13:57:22.199Z,24.85
2022-07-29T13:59:53.728Z,24.86
2022-07-29T14:02:21.484Z,25.44
2022-07-29T14:04:53.611Z,25.76
2022-07-29T14:07:20.309Z,26.18
2022-07-29T14:09:47.010Z,26.09
2022-07-29T14:12:13.686Z,26.75
2022-07-29T14:14:40.725Z,26.32
2022-07-29T14:17:07.918Z,26.63
2022-07-29T14:19:37.466Z,26.44
2022-07-29T14:22:06.211Z,26.74
2022-07-29T14:24:36.412Z,26.92
2022-07-29T14:27:07.489Z,27.03
2022-07-29T14:29:37.065Z,27.00
2022-07-29T14:32:08.203Z,26.73
2022-07-29T14:34:36.354Z,25.88
2022-07-29T14:37:03.905Z,25.24
2022-07-29T14:39:31.970Z,25.44
2022-07-29T14:42:00.061Z,25.60
2022-07-29T14:44:32.150Z,24.86
2022-07-29T14:47:00.845Z,24.43
2022-07-29T14:49:29.534Z,24.33
2022-07-29T14:51:56.475Z,24.24
2022-07-29T14:54:23.723Z,24.35
2022-07-29T14:56:54.641Z,24.81
2022-07-29T14:59:22.244Z,25.16
2022-07-29T15:01:48.894Z,25.29
2022-07-29T15:04:15.756Z,25.33
2022-07-29T15:06:43.045Z,25.96
2022-07-29T15:09:09.840Z,26.37
2022-07-29T15:11:37.875Z,26.72
2022-07-29T15:14:05.582Z,26.69
2022-07-29T15:17:25.540Z,26.05
2022-07-29T15:19:55.498Z,26.33
2022-07-29T15:22:22.174Z,25.96
2022-07-29T15:24:48.862Z,25.74
2022-07-29T15:27:15.595Z,26.23
2022-07-29T15:29:43.098Z,25.76
2022-07-29T15:32:10.677Z,25.12
2022-07-29T15:34:39.046Z,25.44
2022-07-29T15:37:06.459Z,25.34
2022-07-29T15:39:33.371Z,25.76
2022-07-29T15:42:01.531Z,25.80
2022-07-29T15:44:29.133Z,25.85
2022-07-29T15:47:05.998Z,25.81
2022-07-29T15:49:47.214Z,25.63
2022-07-29T15:52:26.133Z,25.72
2022-07-29T15:54:56.775Z,25.65
2022-07-29T15:57:24.072Z,25.63
2022-07-29T15:59:51.065Z,25.38
2022-07-29T16:02:17.938Z,25.79
2022-07-29T16:04:44.812Z,26.12
2022-07-29T16:07:11.853Z,25.79
2022-07-29T16:09:38.833Z,24.89
2022-07-29T16:12:14.710Z,24.24
2022-07-29T16:14:43.105Z,24.60
2022-07-29T16:17:14.473Z,24.67
2022-07-29T16:19:43.198Z,24.81
2022-07-29T16:22:10.502Z,25.13
2022-07-29T16:24:37.194Z,25.24
2022-07-29T16:27:04.865Z,25.18
2022-07-29T16:29:31.899Z,25.36
2022-07-29T16:31:58.709Z,25.40
2022-07-29T16:34:25.533Z,25.68
2022-07-29T16:36:52.316Z,26.06
2022-07-29T16:39:18.943Z,25.73
2022-07-29T16:41:45.734Z,25.71
2022-07-29T16:44:12.731Z,26.15
2022-07-29T16:46:40.863Z,25.74
2022-07-29T16:49:34.591Z,25.93
2022-07-29T16:52:33.843Z,25.98
2022-07-29T16:55:29.568Z,25.59
2022-07-29T17:10:39.244Z,25.27
2022-07-29T17:13:06.932Z,25.45
2022-07-29T17:15:36.663Z,25.34
2022-07-29T17:18:12.596Z,25.51
2022-07-29T17:20:41.986Z,24.80
2022-07-29T17:23:08.784Z,24.76
2022-07-29T17:25:35.565Z,24.28
2022-07-29T17:28:02.748Z,23.92
2022-07-29T17:30:29.951Z,23.48
2022-07-29T17:32:56.801Z,23.16
2022-07-29T17:35:43.184Z,22.92
2022-07-29T17:38:09.965Z,22.82
2022-07-29T17:40:37.385Z,22.84
2022-07-29T17:43:04.844Z,22.77
2022-07-29T17:45:49.334Z,22.74
2022-07-29T17:48:18.980Z,22.56
2022-07-29T17:50:47.073Z,22.55
2022-07-29T17:53:16.039Z,22.62
2022-07-29T17:55:48.993Z,22.62
2022-07-29T17:58:16.278Z,22.46
2022-07-29T18:00:43.314Z,22.24
2022-07-29T18:03:10.271Z,22.22
2022-07-29T18:05:37.722Z,22.24
2022-07-29T18:08:04.658Z,22.06
2022-07-29T18:10:31.611Z,22.13
2022-07-29T18:12:59.685Z,22.02
2022-07-29T18:15:26.366Z,21.99
2022-07-29T18:17:57.519Z,21.97
2022-07-29T18:20:27.722Z,21.93
2022-07-29T18:22:54.598Z,21.82
2022-07-29T18:25:21.350Z,21.61
2022-07-29T18:27:48.179Z,21.65
2022-07-29T18:30:18.061Z,21.60
2022-07-29T18:32:59.100Z,21.46
2022-07-29T18:35:32.324Z,21.23
2022-07-29T18:38:00.743Z,21.23
2022-07-29T18:40:30.389Z,21.17
2022-07-29T18:42:57.227Z,21.01
2022-07-29T18:45:28.201Z,20.92
2022-07-29T18:47:55.083Z,20.94
2022-07-29T18:50:29.164Z,20.86
2022-07-29T18:52:58.927Z,20.84
2022-07-29T18:55:26.529Z,20.71
2022-07-29T18:57:56.095Z,20.63
2022-07-29T19:00:30.140Z,20.58
2022-07-29T19:02:57.236Z,20.55
2022-07-29T19:05:25.742Z,20.43
2022-07-29T19:07:56.162Z,20.35
2022-07-29T19:10:24.130Z,20.27
2022-07-29T19:12:50.764Z,20.12
2022-07-29T19:15:20.281Z,20.03
2022-07-29T19:17:47.997Z,19.94
2022-07-29T19:20:14.655Z,19.91
2022-07-29T19:22:41.277Z,19.84
2022-07-29T19:25:09.424Z,19.77
2022-07-29T19:27:36.054Z,19.62
2022-07-29T19:30:04.666Z,19.61
2022-07-29T19:32:31.478Z,19.51
2022-07-29T19:35:16.619Z,19.44
2022-07-29T19:37:43.691Z,19.29
2022-07-29T19:40:12.253Z,19.26
2022-07-29T19:42:39.193Z,19.19
2022-07-29T19:45:06.663Z,19.10
2022-07-29T19:47:33.446Z,19.01
2022-07-29T19:50:00.749Z,18.96
2022-07-29T19:52:28.272Z,18.89
2022-07-29T19:54:54.946Z,18.82
2022-07-29T19:57:21.879Z,18.76
2022-07-29T19:59:48.578Z,18.68
2022-07-29T20:02:16.512Z,18.65
2022-07-29T20:04:43.577Z,18.63
2022-07-29T20:07:11.647Z,18.57
2022-07-29T20:09:40.754Z,18.52
2022-07-29T20:12:08.969Z,18.49
2022-07-29T20:14:36.041Z,18.41
2022-07-29T20:17:03.104Z,18.40
2022-07-29T20:19:29.935Z,18.31
2022-07-29T20:21:56.859Z,18.34
2022-07-29T20:24:23.685Z,18.30
2022-07-29T20:26:50.964Z,18.27
2022-07-29T20:29:17.709Z,18.19
2022-07-29T20:31:45.742Z,18.16
2022-07-29T20:34:19.150Z,18.07
2022-07-29T20:36:46.157Z,17.98
2022-07-29T20:39:12.858Z,17.93
2022-07-29T20:41:39.722Z,17.91
2022-07-29T20:44:06.861Z,17.85
2022-07-29T20:46:34.642Z,17.77
2022-07-29T20:49:01.419Z,17.74
2022-07-29T20:51:28.225Z,17.75
2022-07-29T20:53:55.977Z,17.75
2022-07-29T20:56:23.117Z,17.76
2022-07-29T20:58:49.787Z,17.77
2022-07-29T21:01:16.692Z,17.76
2022-07-29T21:03:43.618Z,17.77
2022-07-29T21:06:11.467Z,17.76
2022-07-29T21:08:39.183Z,17.78
2022-07-29T21:11:05.896Z,17.81
2022-07-29T21:13:38.229Z,17.69
2022-07-29T21:16:14.739Z,17.63
2022-07-29T21:18:46.757Z,17.62
2022-07-29T21:21:15.481Z,17.60
2022-07-29T21:23:43.896Z,17.63
2022-07-29T21:26:12.928Z,17.65
2022-07-29T21:28:44.020Z,17.61
2022-07-29T21:31:13.025Z,17.61
2022-07-29T21:33:41.910Z,17.58
2022-07-29T21:38:57.094Z,17.48
2022-07-29T21:41:23.731Z,17.47
2022-07-29T21:43:50.420Z,17.35
2022-07-29T21:46:18.238Z,17.29
2022-07-29T21:48:45.147Z,17.26
2022-07-29T21:51:12.126Z,17.22
2022-07-29T21:53:39.042Z,17.20
2022-07-29T21:56:06.643Z,17.18
2022-07-29T21:58:36.995Z,17.16
2022-07-29T22:01:03.832Z,17.15
2022-07-29T22:03:30.518Z,17.09
2022-07-29T22:05:57.288Z,17.07
2022-07-29T22:08:23.900Z,17.01
2022-07-29T22:10:50.530Z,16.94
2022-07-29T22:13:17.238Z,16.91
2022-07-29T22:15:47.055Z,16.90
2022-07-29T22:18:20.621Z,16.81
2022-07-29T22:20:50.405Z,16.78
2022-07-29T22:23:17.112Z,16.72
2022-07-29T22:25:44.177Z,16.65
2022-07-29T22:28:10.844Z,16.60
2022-07-29T22:30:37.735Z,16.61
2022-07-29T22:33:04.402Z,16.57
2022-07-29T22:35:31.175Z,16.55
2022-07-29T22:37:57.915Z,16.51
2022-07-29T22:40:30.675Z,16.49
2022-07-29T22:42:59.391Z,16.48
2022-07-29T22:45:26.001Z,16.45
2022-07-29T22:47:57.888Z,16.45
2022-07-29T22:50:26.453Z,16.42
2022-07-29T22:52:53.063Z,16.57
2022-07-29T22:55:20.220Z,16.68
2022-07-29T22:57:46.877Z,16.69
2022-07-29T23:00:14.339Z,16.65
2022-07-29T23:02:41.675Z,16.63
2022-07-29T23:05:09.196Z,16.61
2022-07-29T23:07:36.274Z,16.57
2022-07-29T23:10:04.005Z,16.52
2022-07-29T23:12:30.655Z,16.55
2022-07-29T23:14:57.451Z,16.58
2022-07-29T23:17:24.293Z,16.60
2022-07-29T23:19:51.005Z,16.59
2022-07-29T23:22:18.538Z,16.60
2022-07-29T23:24:45.535Z,16.58
2022-07-29T23:27:12.144Z,16.54
2022-07-29T23:29:38.941Z,16.51
2022-07-29T23:32:07.072Z,16.48
2022-07-29T23:34:34.805Z,16.44
2022-07-29T23:37:01.703Z,16.33
2022-07-29T23:39:29.950Z,16.24
2022-07-29T23:41:56.734Z,16.27
2022-07-29T23:44:23.781Z,16.25
2022-07-29T23:46:50.550Z,16.20
2022-07-29T23:49:17.482Z,16.13
2022-07-29T23:51:44.389Z,16.05
2022-07-29T23:54:10.976Z,16.07
2022-07-29T23:56:37.747Z,16.13
2022-07-29T23:59:05.970Z,16.10
